createdAt,value
2018-01-30T00:00:05.272Z,983.71
2018-01-30T00:01:05.387Z,983.74
2018-01-30T00:02:06.712Z,983.77
2018-01-30T00:03:05.996Z,983.85
2018-01-30T00:04:05.763Z,983.80
2018-01-30T00:05:05.414Z,983.74
2018-01-30T00:06:05.173Z,983.80
2018-01-30T00:07:04.952Z,983.83
2018-01-30T00:08:05.332Z,983.95
2018-01-30T00:09:05.308Z,983.84
2018-01-30T00:10:05.111Z,984.03
2018-01-30T00:11:05.544Z,984.07
2018-01-30T00:12:05.643Z,984.12
2018-01-30T00:13:10.783Z,983.90
2018-01-30T00:14:05.787Z,984.01
2018-01-30T00:15:05.287Z,984.16
2018-01-30T00:16:05.931Z,984.27
2018-01-30T00:17:05.223Z,984.24
2018-01-30T00:18:05.456Z,984.16
2018-01-30T00:19:05.314Z,984.13
2018-01-30T00:20:05.464Z,984.25
2018-01-30T00:21:05.305Z,984.39
2018-01-30T00:22:05.191Z,984.36
2018-01-30T00:23:05.235Z,984.47
2018-01-30T00:24:05.884Z,984.36
2018-01-30T00:25:05.298Z,984.78
2018-01-30T00:26:05.282Z,984.42
2018-01-30T00:27:06.965Z,984.34
2018-01-30T00:28:05.435Z,984.31
2018-01-30T00:29:05.385Z,984.48
2018-01-30T00:30:05.606Z,984.28
2018-01-30T00:31:05.178Z,984.48
2018-01-30T00:32:05.822Z,984.53
2018-01-30T00:33:05.616Z,984.59
2018-01-30T00:34:05.303Z,984.59
2018-01-30T00:35:05.129Z,984.73
2018-01-30T00:36:06.091Z,984.81
2018-01-30T00:37:04.951Z,984.78
2018-01-30T00:38:05.808Z,984.68
2018-01-30T00:39:05.772Z,984.62
2018-01-30T00:40:05.595Z,984.68
2018-01-30T00:41:05.013Z,984.62
2018-01-30T00:42:04.986Z,984.62
2018-01-30T00:43:11.087Z,984.74
2018-01-30T00:44:04.984Z,984.60
2018-01-30T00:45:05.767Z,984.71
2018-01-30T00:46:05.824Z,984.77
2018-01-30T00:47:05.407Z,984.74
2018-01-30T00:48:10.696Z,984.77
2018-01-30T00:49:05.247Z,984.87
2018-01-30T00:50:05.877Z,984.77
2018-01-30T00:51:05.176Z,984.93
2018-01-30T00:52:05.135Z,984.84
2018-01-30T00:53:05.272Z,984.99
2018-01-30T00:54:06.181Z,984.87
2018-01-30T00:55:05.653Z,984.84
2018-01-30T00:56:05.977Z,984.87
2018-01-30T00:57:05.459Z,984.79
2018-01-30T00:58:05.200Z,984.99
2018-01-30T00:59:05.250Z,984.93
2018-01-30T01:00:05.852Z,984.93
2018-01-30T01:01:05.212Z,985.13
2018-01-30T01:02:05.377Z,984.93
2018-01-30T01:03:06.184Z,985.02
2018-01-30T01:04:05.322Z,985.02
2018-01-30T01:05:05.282Z,984.90
2018-01-30T01:06:05.932Z,985.02
2018-01-30T01:07:05.554Z,985.19
2018-01-30T01:08:05.674Z,985.13
2018-01-30T01:09:05.816Z,985.10
2018-01-30T01:10:05.688Z,985.16
2018-01-30T01:11:05.362Z,985.11
2018-01-30T01:12:05.026Z,985.11
2018-01-30T01:13:05.763Z,985.16
2018-01-30T01:14:05.337Z,985.14
2018-01-30T01:15:05.702Z,985.17
2018-01-30T01:16:05.807Z,985.11
2018-01-30T01:17:05.207Z,985.14
2018-01-30T01:18:05.932Z,985.17
2018-01-30T01:19:05.372Z,985.25
2018-01-30T01:20:05.405Z,985.44
2018-01-30T01:21:05.282Z,985.22
2018-01-30T01:22:05.282Z,985.39
2018-01-30T01:23:05.280Z,985.25
2018-01-30T01:24:05.318Z,985.36
2018-01-30T01:25:05.840Z,985.36
2018-01-30T01:26:05.724Z,985.28
2018-01-30T01:27:05.650Z,985.28
2018-01-30T01:28:05.649Z,985.42
2018-01-30T01:29:05.472Z,985.47
2018-01-30T01:30:05.422Z,985.26
2018-01-30T01:31:05.236Z,985.45
2018-01-30T01:32:05.829Z,985.42
2018-01-30T01:33:05.783Z,985.48
2018-01-30T01:34:05.812Z,985.53
2018-01-30T01:35:05.961Z,985.56
2018-01-30T01:36:05.787Z,985.53
2018-01-30T01:37:05.150Z,985.56
2018-01-30T01:38:05.980Z,985.54
2018-01-30T01:39:05.677Z,985.59
2018-01-30T01:40:05.401Z,985.79
2018-01-30T01:41:05.542Z,985.71
2018-01-30T01:42:05.307Z,985.71
2018-01-30T01:43:05.213Z,985.65
2018-01-30T01:44:05.786Z,985.88
2018-01-30T01:45:05.735Z,985.82
2018-01-30T01:46:05.741Z,985.79
2018-01-30T01:47:05.544Z,985.99
2018-01-30T01:48:05.950Z,985.94
2018-01-30T01:49:05.360Z,985.79
2018-01-30T01:50:06.033Z,985.91
2018-01-30T01:51:05.705Z,985.91
2018-01-30T01:52:05.805Z,986.08
2018-01-30T01:53:05.219Z,985.88
2018-01-30T01:54:05.041Z,986.05
2018-01-30T01:55:05.541Z,985.99
2018-01-30T01:56:05.521Z,986.05
2018-01-30T01:57:05.591Z,985.99
2018-01-30T01:58:05.686Z,986.02
2018-01-30T01:59:05.246Z,985.94
2018-01-30T02:00:05.743Z,985.91
2018-01-30T02:01:05.625Z,985.99
2018-01-30T02:02:05.624Z,985.94
2018-01-30T02:03:05.083Z,985.97
2018-01-30T02:04:05.294Z,985.88
2018-01-30T02:05:04.934Z,985.94
2018-01-30T02:06:05.207Z,985.88
2018-01-30T02:07:05.375Z,985.94
2018-01-30T02:08:05.197Z,985.88
2018-01-30T02:09:05.757Z,986.00
2018-01-30T02:10:05.597Z,986.00
2018-01-30T02:11:05.323Z,986.14
2018-01-30T02:12:05.059Z,986.17
2018-01-30T02:13:05.900Z,986.23
2018-01-30T02:14:06.080Z,986.03
2018-01-30T02:15:05.883Z,986.14
2018-01-30T02:16:05.591Z,986.06
2018-01-30T02:17:05.777Z,986.14
2018-01-30T02:18:05.230Z,986.03
2018-01-30T02:19:05.703Z,986.03
2018-01-30T02:20:05.807Z,986.09
2018-01-30T02:21:05.785Z,986.00
2018-01-30T02:22:05.996Z,986.03
2018-01-30T02:23:05.883Z,986.06
2018-01-30T02:24:05.902Z,985.97
2018-01-30T02:25:05.401Z,986.06
2018-01-30T02:26:05.321Z,986.00
2018-01-30T02:27:05.065Z,986.14
2018-01-30T02:28:05.906Z,986.17
2018-01-30T02:29:05.014Z,986.17
2018-01-30T02:30:05.070Z,986.14
2018-01-30T02:31:05.784Z,985.97
2018-01-30T02:32:05.289Z,986.12
2018-01-30T02:33:05.667Z,986.26
2018-01-30T02:34:05.576Z,986.12
2018-01-30T02:35:05.204Z,986.23
2018-01-30T02:36:04.990Z,986.20
2018-01-30T02:37:11.570Z,986.37
2018-01-30T02:38:05.564Z,986.23
2018-01-30T02:39:05.550Z,986.26
2018-01-30T02:40:05.475Z,986.26
2018-01-30T02:41:05.312Z,986.23
2018-01-30T02:42:05.257Z,986.17
2018-01-30T02:43:05.389Z,986.26
2018-01-30T02:44:05.103Z,986.26
2018-01-30T02:45:05.557Z,986.34
2018-01-30T02:46:05.306Z,986.34
2018-01-30T02:47:05.912Z,986.37
2018-01-30T02:48:05.763Z,986.40
2018-01-30T02:49:05.716Z,986.31
2018-01-30T02:50:05.380Z,986.26
2018-01-30T02:51:05.262Z,986.51
2018-01-30T02:52:05.038Z,986.40
2018-01-30T02:53:05.247Z,986.37
2018-01-30T02:54:05.134Z,986.32
2018-01-30T02:55:05.272Z,986.46
2018-01-30T02:56:04.931Z,986.43
2018-01-30T02:57:05.017Z,986.37
2018-01-30T02:58:05.969Z,986.61
2018-01-30T02:59:04.942Z,986.51
2018-01-30T03:00:05.051Z,986.48
2018-01-30T03:01:05.361Z,986.51
2018-01-30T03:02:05.152Z,986.62
2018-01-30T03:03:06.250Z,986.62
2018-01-30T03:04:05.200Z,986.51
2018-01-30T03:05:05.379Z,986.73
2018-01-30T03:06:05.567Z,986.59
2018-01-30T03:07:05.960Z,986.67
2018-01-30T03:08:05.893Z,986.65
2018-01-30T03:09:05.034Z,986.56
2018-01-30T03:10:05.237Z,986.52
2018-01-30T03:11:10.115Z,986.46
2018-01-30T03:12:05.230Z,986.54
2018-01-30T03:13:05.403Z,986.52
2018-01-30T03:14:05.810Z,986.40
2018-01-30T03:15:05.912Z,986.68
2018-01-30T03:16:05.630Z,986.62
2018-01-30T03:17:05.619Z,986.68
2018-01-30T03:18:05.360Z,986.73
2018-01-30T03:19:10.814Z,986.70
2018-01-30T03:20:05.339Z,986.70
2018-01-30T03:21:05.255Z,986.70
2018-01-30T03:22:05.435Z,986.68
2018-01-30T03:23:05.268Z,986.70
2018-01-30T03:24:05.423Z,986.70
2018-01-30T03:25:05.640Z,986.56
2018-01-30T03:26:05.306Z,986.65
2018-01-30T03:27:05.327Z,986.82
2018-01-30T03:28:04.983Z,986.68
2018-01-30T03:29:05.054Z,986.68
2018-01-30T03:30:05.361Z,986.70
2018-01-30T03:31:05.274Z,986.82
2018-01-30T03:32:05.083Z,986.73
2018-01-30T03:33:05.004Z,986.65
2018-01-30T03:34:05.789Z,986.68
2018-01-30T03:35:05.269Z,986.65
2018-01-30T03:36:05.221Z,986.68
2018-01-30T03:37:05.324Z,986.62
2018-01-30T03:38:06.049Z,986.62
2018-01-30T03:39:05.691Z,986.73
2018-01-30T03:40:05.675Z,986.79
2018-01-30T03:41:05.843Z,986.71
2018-01-30T03:42:05.395Z,986.65
2018-01-30T03:43:05.459Z,986.65
2018-01-30T03:44:05.440Z,986.59
2018-01-30T03:45:05.244Z,986.55
2018-01-30T03:46:05.069Z,986.57
2018-01-30T03:47:05.236Z,986.74
2018-01-30T03:48:05.676Z,986.62
2018-01-30T03:49:05.419Z,986.71
2018-01-30T03:50:05.410Z,986.65
2018-01-30T03:51:05.532Z,986.88
2018-01-30T03:52:05.865Z,986.60
2018-01-30T03:53:05.793Z,986.68
2018-01-30T03:54:05.750Z,986.60
2018-01-30T03:55:05.308Z,986.57
2018-01-30T03:56:06.177Z,986.52
2018-01-30T03:57:04.979Z,986.60
2018-01-30T03:58:05.121Z,986.55
2018-01-30T03:59:05.720Z,986.63
2018-01-30T04:00:05.132Z,986.63
2018-01-30T04:01:05.082Z,986.57
2018-01-30T04:02:05.698Z,986.74
2018-01-30T04:03:05.933Z,986.57
2018-01-30T04:04:05.729Z,986.63
2018-01-30T04:05:05.385Z,986.63
2018-01-30T04:06:05.142Z,986.74
2018-01-30T04:07:05.467Z,986.60
2018-01-30T04:08:05.201Z,986.80
2018-01-30T04:09:05.587Z,986.71
2018-01-30T04:10:05.590Z,986.56
2018-01-30T04:11:05.042Z,986.69
2018-01-30T04:12:04.954Z,986.83
2018-01-30T04:13:05.884Z,986.66
2018-01-30T04:14:05.743Z,986.72
2018-01-30T04:15:05.368Z,986.83
2018-01-30T04:16:07.039Z,986.86
2018-01-30T04:17:10.913Z,986.86
2018-01-30T04:18:05.981Z,986.94
2018-01-30T04:19:05.467Z,986.97
2018-01-30T04:20:05.096Z,986.92
2018-01-30T04:21:05.034Z,986.89
2018-01-30T04:22:05.799Z,986.97
2018-01-30T04:23:05.331Z,986.89
2018-01-30T04:24:05.030Z,986.72
2018-01-30T04:25:05.677Z,986.95
2018-01-30T04:26:10.309Z,986.80
2018-01-30T04:27:05.942Z,986.92
2018-01-30T04:28:05.911Z,987.00
2018-01-30T04:29:05.662Z,987.12
2018-01-30T04:30:05.396Z,986.95
2018-01-30T04:31:05.218Z,987.00
2018-01-30T04:32:05.812Z,986.98
2018-01-30T04:33:05.085Z,986.92
2018-01-30T04:34:05.326Z,986.92
2018-01-30T04:35:05.284Z,986.89
2018-01-30T04:36:06.209Z,986.95
2018-01-30T04:37:05.436Z,987.06
2018-01-30T04:38:05.516Z,987.06
2018-01-30T04:39:05.579Z,987.09
2018-01-30T04:40:05.190Z,987.03
2018-01-30T04:41:05.344Z,987.06
2018-01-30T04:42:05.484Z,987.06
2018-01-30T04:43:05.487Z,986.98
2018-01-30T04:44:05.295Z,986.87
2018-01-30T04:45:05.897Z,986.92
2018-01-30T04:46:05.467Z,986.84
2018-01-30T04:47:05.557Z,986.87
2018-01-30T04:48:05.574Z,987.01
2018-01-30T04:49:05.789Z,986.87
2018-01-30T04:50:05.808Z,986.90
2018-01-30T04:51:05.419Z,986.92
2018-01-30T04:52:05.079Z,986.87
2018-01-30T04:53:10.225Z,986.95
2018-01-30T04:54:05.270Z,986.76
2018-01-30T04:55:05.456Z,986.73
2018-01-30T04:56:05.457Z,986.90
2018-01-30T04:57:05.504Z,986.87
2018-01-30T04:58:05.075Z,986.81
2018-01-30T04:59:05.850Z,986.81
2018-01-30T05:00:05.068Z,986.76
2018-01-30T05:01:05.006Z,986.87
2018-01-30T05:02:05.620Z,986.93
2018-01-30T05:03:10.928Z,986.90
2018-01-30T05:04:05.708Z,986.95
2018-01-30T05:05:05.013Z,987.01
2018-01-30T05:06:05.486Z,986.90
2018-01-30T05:07:05.879Z,986.93
2018-01-30T05:08:05.802Z,986.98
2018-01-30T05:09:05.872Z,986.96
2018-01-30T05:10:05.795Z,986.98
2018-01-30T05:11:05.485Z,986.96
2018-01-30T05:12:05.740Z,986.99
2018-01-30T05:13:05.640Z,987.01
2018-01-30T05:14:04.946Z,987.10
2018-01-30T05:15:05.063Z,986.96
2018-01-30T05:16:05.573Z,987.02
2018-01-30T05:17:05.053Z,987.04
2018-01-30T05:18:05.001Z,987.10
2018-01-30T05:19:06.008Z,987.13
2018-01-30T05:20:06.134Z,987.04
2018-01-30T05:21:05.739Z,987.02
2018-01-30T05:22:05.383Z,987.19
2018-01-30T05:23:05.251Z,986.96
2018-01-30T05:24:04.933Z,987.13
2018-01-30T05:25:06.055Z,987.21
2018-01-30T05:26:05.654Z,986.96
2018-01-30T05:27:05.031Z,986.99
2018-01-30T05:28:06.801Z,987.05
2018-01-30T05:29:05.134Z,987.13
2018-01-30T05:30:05.510Z,987.08
2018-01-30T05:31:05.645Z,987.13
2018-01-30T05:32:05.632Z,987.16
2018-01-30T05:33:05.701Z,987.16
2018-01-30T05:34:05.642Z,987.22
2018-01-30T05:35:05.137Z,987.16
2018-01-30T05:36:05.852Z,987.25
2018-01-30T05:37:05.952Z,987.30
2018-01-30T05:38:05.659Z,987.16
2018-01-30T05:39:05.720Z,987.25
2018-01-30T05:40:05.763Z,987.33
2018-01-30T05:41:05.489Z,987.36
2018-01-30T05:42:05.551Z,987.31
2018-01-30T05:43:05.506Z,987.45
2018-01-30T05:44:05.670Z,987.45
2018-01-30T05:45:04.961Z,987.42
2018-01-30T05:46:05.757Z,987.45
2018-01-30T05:47:05.943Z,987.36
2018-01-30T05:48:05.763Z,987.31
2018-01-30T05:49:05.602Z,987.56
2018-01-30T05:50:05.585Z,987.50
2018-01-30T05:51:05.065Z,987.48
2018-01-30T05:52:05.782Z,987.53
2018-01-30T05:53:05.672Z,987.47
2018-01-30T05:54:05.577Z,987.45
2018-01-30T05:55:05.344Z,987.47
2018-01-30T05:56:05.392Z,987.56
2018-01-30T05:57:05.446Z,987.56
2018-01-30T05:58:05.114Z,987.45
2018-01-30T05:59:05.120Z,987.59
2018-01-30T06:00:05.332Z,987.56
2018-01-30T06:01:05.559Z,987.64
2018-01-30T06:02:05.182Z,987.73
2018-01-30T06:03:05.780Z,987.61
2018-01-30T06:04:05.856Z,987.50
2018-01-30T06:05:05.315Z,987.50
2018-01-30T06:06:05.529Z,987.56
2018-01-30T06:07:05.305Z,987.58
2018-01-30T06:08:05.331Z,987.70
2018-01-30T06:09:05.361Z,987.56
2018-01-30T06:10:06.006Z,987.50
2018-01-30T06:11:05.373Z,987.53
2018-01-30T06:12:05.483Z,987.50
2018-01-30T06:13:05.131Z,987.61
2018-01-30T06:14:05.285Z,987.67
2018-01-30T06:15:05.224Z,987.70
2018-01-30T06:16:05.541Z,987.67
2018-01-30T06:17:05.883Z,987.84
2018-01-30T06:18:05.923Z,987.64
2018-01-30T06:19:05.495Z,987.70
2018-01-30T06:20:04.926Z,987.67
2018-01-30T06:21:05.873Z,987.75
2018-01-30T06:22:05.256Z,987.64
2018-01-30T06:23:05.209Z,987.75
2018-01-30T06:24:05.424Z,987.69
2018-01-30T06:25:10.238Z,987.75
2018-01-30T06:26:05.496Z,987.69
2018-01-30T06:27:05.935Z,987.72
2018-01-30T06:28:05.933Z,987.67
2018-01-30T06:29:05.505Z,987.64
2018-01-30T06:30:05.271Z,987.67
2018-01-30T06:31:05.124Z,987.69
2018-01-30T06:32:05.458Z,987.64
2018-01-30T06:33:05.560Z,987.81
2018-01-30T06:34:05.079Z,987.83
2018-01-30T06:35:05.574Z,987.61
2018-01-30T06:36:05.976Z,987.81
2018-01-30T06:37:05.992Z,987.64
2018-01-30T06:38:05.710Z,987.75
2018-01-30T06:39:05.508Z,987.72
2018-01-30T06:40:05.150Z,987.81
2018-01-30T06:41:05.859Z,987.86
2018-01-30T06:42:05.483Z,987.72
2018-01-30T06:43:05.377Z,987.86
2018-01-30T06:44:05.415Z,987.75
2018-01-30T06:45:05.881Z,987.73
2018-01-30T06:46:05.955Z,987.84
2018-01-30T06:47:05.340Z,987.81
2018-01-30T06:48:05.215Z,987.81
2018-01-30T06:49:05.680Z,987.87
2018-01-30T06:50:05.616Z,987.87
2018-01-30T06:51:05.239Z,987.81
2018-01-30T06:52:05.147Z,987.87
2018-01-30T06:53:05.574Z,987.81
2018-01-30T06:54:05.472Z,987.73
2018-01-30T06:55:11.112Z,987.78
2018-01-30T06:56:05.594Z,987.64
2018-01-30T06:57:05.683Z,987.76
2018-01-30T06:58:11.109Z,987.76
2018-01-30T06:59:04.956Z,987.87
2018-01-30T07:00:05.549Z,987.76
2018-01-30T07:01:05.266Z,987.79
2018-01-30T07:02:05.815Z,987.81
2018-01-30T07:03:10.299Z,987.81
2018-01-30T07:04:05.796Z,987.87
2018-01-30T07:05:05.244Z,987.79
2018-01-30T07:06:04.968Z,987.84
2018-01-30T07:07:05.309Z,987.92
2018-01-30T07:08:05.432Z,987.95
2018-01-30T07:09:05.499Z,987.92
2018-01-30T07:10:05.590Z,988.03
2018-01-30T07:11:05.603Z,987.97
2018-01-30T07:12:05.412Z,987.92
2018-01-30T07:13:10.631Z,987.98
2018-01-30T07:14:05.381Z,988.06
2018-01-30T07:15:05.591Z,987.92
2018-01-30T07:16:05.047Z,988.03
2018-01-30T07:17:05.165Z,988.12
2018-01-30T07:18:05.098Z,988.14
2018-01-30T07:19:06.114Z,988.23
2018-01-30T07:20:05.386Z,988.09
2018-01-30T07:21:05.294Z,988.20
2018-01-30T07:22:05.380Z,988.27
2018-01-30T07:23:05.091Z,988.30
2018-01-30T07:24:05.524Z,988.23
2018-01-30T07:25:05.593Z,988.20
2018-01-30T07:26:05.734Z,988.30
2018-01-30T07:27:05.076Z,988.17
2018-01-30T07:28:06.036Z,988.33
2018-01-30T07:29:05.943Z,988.20
2018-01-30T07:30:05.533Z,988.28
2018-01-30T07:31:10.834Z,988.30
2018-01-30T07:32:05.939Z,988.30
2018-01-30T07:33:05.838Z,988.26
2018-01-30T07:34:05.247Z,988.28
2018-01-30T07:35:05.923Z,988.39
2018-01-30T07:36:05.667Z,988.39
2018-01-30T07:37:05.902Z,988.47
2018-01-30T07:38:05.455Z,988.42
2018-01-30T07:39:05.801Z,988.44
2018-01-30T07:40:05.421Z,988.42
2018-01-30T07:41:05.321Z,988.55
2018-01-30T07:42:05.519Z,988.67
2018-01-30T07:43:05.188Z,988.58
2018-01-30T07:44:05.538Z,988.50
2018-01-30T07:45:05.800Z,988.47
2018-01-30T07:46:05.237Z,988.64
2018-01-30T07:47:05.231Z,988.55
2018-01-30T07:48:05.748Z,988.53
2018-01-30T07:49:05.935Z,988.69
2018-01-30T07:50:05.593Z,988.47
2018-01-30T07:51:05.426Z,988.69
2018-01-30T07:52:05.868Z,988.61
2018-01-30T07:53:05.620Z,988.64
2018-01-30T07:54:05.903Z,988.67
2018-01-30T07:55:05.779Z,988.72
2018-01-30T07:56:05.464Z,988.69
2018-01-30T07:57:05.084Z,988.69
2018-01-30T07:58:10.318Z,988.58
2018-01-30T07:59:05.369Z,988.72
2018-01-30T08:00:05.099Z,988.69
2018-01-30T08:01:06.006Z,988.78
2018-01-30T08:02:05.803Z,988.69
2018-01-30T08:03:05.846Z,988.83
2018-01-30T08:04:05.524Z,988.75
2018-01-30T08:05:05.141Z,988.74
2018-01-30T08:06:05.618Z,988.74
2018-01-30T08:07:05.216Z,988.72
2018-01-30T08:08:05.318Z,988.77
2018-01-30T08:09:05.482Z,988.66
2018-01-30T08:10:05.516Z,988.77
2018-01-30T08:11:05.071Z,988.88
2018-01-30T08:12:05.694Z,988.77
2018-01-30T08:13:05.968Z,988.97
2018-01-30T08:14:05.044Z,988.83
2018-01-30T08:15:05.202Z,988.69
2018-01-30T08:16:05.172Z,988.77
2018-01-30T08:17:05.799Z,988.72
2018-01-30T08:18:05.488Z,988.66
2018-01-30T08:19:05.294Z,988.77
2018-01-30T08:20:05.404Z,988.80
2018-01-30T08:21:05.724Z,988.88
2018-01-30T08:22:04.992Z,988.88
2018-01-30T08:23:04.912Z,988.83
2018-01-30T08:24:05.593Z,988.88
2018-01-30T08:25:05.574Z,988.91
2018-01-30T08:26:05.407Z,988.91
2018-01-30T08:27:10.314Z,988.86
2018-01-30T08:28:05.578Z,988.88
2018-01-30T08:29:05.629Z,988.94
2018-01-30T08:30:05.305Z,988.88
2018-01-30T08:31:05.303Z,988.97
2018-01-30T08:32:05.259Z,988.97
2018-01-30T08:33:05.390Z,988.94
2018-01-30T08:34:05.980Z,988.97
2018-01-30T08:35:05.029Z,988.91
2018-01-30T08:36:05.657Z,988.94
2018-01-30T08:37:05.547Z,988.91
2018-01-30T08:38:05.358Z,989.11
2018-01-30T08:39:05.225Z,989.05
2018-01-30T08:40:05.076Z,989.02
2018-01-30T08:41:05.866Z,989.28
2018-01-30T08:42:05.010Z,989.19
2018-01-30T08:43:05.058Z,989.16
2018-01-30T08:44:05.802Z,989.08
2018-01-30T08:45:05.535Z,989.19
2018-01-30T08:46:05.672Z,989.19
2018-01-30T08:47:05.647Z,989.11
2018-01-30T08:48:05.758Z,989.16
2018-01-30T08:49:05.741Z,989.08
2018-01-30T08:50:05.723Z,989.16
2018-01-30T08:51:05.601Z,989.27
2018-01-30T08:52:05.536Z,989.10
2018-01-30T08:53:05.476Z,989.19
2018-01-30T08:54:05.356Z,989.16
2018-01-30T08:55:05.213Z,989.08
2018-01-30T08:56:10.459Z,989.16
2018-01-30T08:57:05.816Z,989.13
2018-01-30T08:58:05.320Z,989.10
2018-01-30T08:59:05.143Z,989.19
2018-01-30T09:00:05.958Z,989.05
2018-01-30T09:01:05.100Z,989.07
2018-01-30T09:02:05.217Z,989.04
2018-01-30T09:03:04.932Z,989.07
2018-01-30T09:04:04.956Z,988.96
2018-01-30T09:05:05.744Z,989.13
2018-01-30T09:06:05.893Z,989.13
2018-01-30T09:07:05.378Z,989.07
2018-01-30T09:08:05.798Z,989.07
2018-01-30T09:09:10.360Z,988.96
2018-01-30T09:10:05.893Z,989.10
2018-01-30T09:11:05.645Z,989.07
2018-01-30T09:12:05.505Z,989.10
2018-01-30T09:13:05.372Z,989.12
2018-01-30T09:14:05.937Z,989.18
2018-01-30T09:15:05.263Z,988.95
2018-01-30T09:16:05.664Z,988.95
2018-01-30T09:17:05.477Z,988.95
2018-01-30T09:18:05.179Z,988.95
2018-01-30T09:19:05.820Z,988.95
2018-01-30T09:20:05.634Z,988.98
2018-01-30T09:21:05.538Z,988.95
2018-01-30T09:22:05.656Z,988.98
2018-01-30T09:23:10.828Z,989.06
2018-01-30T09:24:05.116Z,988.98
2018-01-30T09:25:05.820Z,989.12
2018-01-30T09:26:05.188Z,989.15
2018-01-30T09:27:04.936Z,989.15
2018-01-30T09:28:06.104Z,989.09
2018-01-30T09:29:05.248Z,989.15
2018-01-30T09:30:05.338Z,989.09
2018-01-30T09:31:10.433Z,989.20
2018-01-30T09:32:05.412Z,989.06
2018-01-30T09:33:05.126Z,989.12
2018-01-30T09:34:05.930Z,989.06
2018-01-30T09:35:05.868Z,989.23
2018-01-30T09:36:04.980Z,989.09
2018-01-30T09:37:05.574Z,989.20
2018-01-30T09:38:05.362Z,989.14
2018-01-30T09:39:05.230Z,989.20
2018-01-30T09:40:05.644Z,989.19
2018-01-30T09:41:05.067Z,989.22
2018-01-30T09:42:05.799Z,989.28
2018-01-30T09:43:05.879Z,989.22
2018-01-30T09:44:04.935Z,989.25
2018-01-30T09:45:05.820Z,989.25
2018-01-30T09:46:05.446Z,989.19
2018-01-30T09:47:05.207Z,989.30
2018-01-30T09:48:05.241Z,989.19
2018-01-30T09:49:05.260Z,989.22
2018-01-30T09:50:11.598Z,989.19
2018-01-30T09:51:05.462Z,989.33
2018-01-30T09:52:05.458Z,989.19
2018-01-30T09:53:05.098Z,989.38
2018-01-30T09:54:04.979Z,989.24
2018-01-30T09:55:05.926Z,989.27
2018-01-30T09:56:05.709Z,989.19
2018-01-30T09:57:05.388Z,989.19
2018-01-30T09:58:05.515Z,989.27
2018-01-30T09:59:05.345Z,989.16
2018-01-30T10:00:06.781Z,989.21
2018-01-30T10:01:05.675Z,989.10
2018-01-30T10:02:05.986Z,989.10
2018-01-30T10:03:10.785Z,989.07
2018-01-30T10:04:10.890Z,989.19
2018-01-30T10:05:05.100Z,989.07
2018-01-30T10:06:05.527Z,989.10
2018-01-30T10:07:05.266Z,989.02
2018-01-30T10:08:05.243Z,989.04
2018-01-30T10:09:05.000Z,989.04
2018-01-30T10:10:05.102Z,989.16
2018-01-30T10:11:05.992Z,989.10
2018-01-30T10:12:05.759Z,989.13
2018-01-30T10:13:05.523Z,989.04
2018-01-30T10:14:06.139Z,989.10
2018-01-30T10:15:05.426Z,989.13
2018-01-30T10:16:05.251Z,989.30
2018-01-30T10:17:05.330Z,989.13
2018-01-30T10:18:05.459Z,989.30
2018-01-30T10:19:04.942Z,989.10
2018-01-30T10:20:05.969Z,989.21
2018-01-30T10:21:05.760Z,989.24
2018-01-30T10:22:05.965Z,989.10
2018-01-30T10:23:05.640Z,989.16
2018-01-30T10:24:05.895Z,989.16
2018-01-30T10:25:05.585Z,989.16
2018-01-30T10:26:05.290Z,989.16
2018-01-30T10:27:05.388Z,989.27
2018-01-30T10:28:05.794Z,989.10
2018-01-30T10:29:05.888Z,989.22
2018-01-30T10:30:06.554Z,989.27
2018-01-30T10:31:05.386Z,989.19
2018-01-30T10:32:05.372Z,989.07
2018-01-30T10:33:08.876Z,989.13
2018-01-30T10:34:05.855Z,989.02
2018-01-30T10:35:05.494Z,989.02
2018-01-30T10:36:05.011Z,989.05
2018-01-30T10:37:05.699Z,989.02
2018-01-30T10:38:05.636Z,989.22
2018-01-30T10:39:05.393Z,989.07
2018-01-30T10:40:05.147Z,989.05
2018-01-30T10:41:06.322Z,989.02
2018-01-30T10:42:05.612Z,989.10
2018-01-30T10:43:05.776Z,989.07
2018-01-30T10:44:05.232Z,989.02
2018-01-30T10:45:05.493Z,988.96
2018-01-30T10:46:05.023Z,988.84
2018-01-30T10:47:05.921Z,988.98
2018-01-30T10:48:05.814Z,988.79
2018-01-30T10:49:05.799Z,988.90
2018-01-30T10:50:06.028Z,988.93
2018-01-30T10:51:05.646Z,988.84
2018-01-30T10:52:05.382Z,988.90
2018-01-30T10:53:05.468Z,988.75
2018-01-30T10:54:05.332Z,988.95
2018-01-30T10:55:04.935Z,988.72
2018-01-30T10:56:10.881Z,988.98
2018-01-30T10:57:10.936Z,988.84
2018-01-30T10:58:05.896Z,988.84
2018-01-30T10:59:05.769Z,988.84
2018-01-30T11:00:05.398Z,988.89
2018-01-30T11:01:05.657Z,988.78
2018-01-30T11:02:05.274Z,988.75
2018-01-30T11:03:05.872Z,988.72
2018-01-30T11:04:06.908Z,988.83
2018-01-30T11:05:05.046Z,988.86
2018-01-30T11:06:05.617Z,988.80
2018-01-30T11:07:05.172Z,988.92
2018-01-30T11:08:04.987Z,988.86
2018-01-30T11:09:05.961Z,988.72
2018-01-30T11:10:05.599Z,988.63
2018-01-30T11:11:05.276Z,988.66
2018-01-30T11:12:05.529Z,988.77
2018-01-30T11:13:05.542Z,988.71
2018-01-30T11:14:05.138Z,988.63
2018-01-30T11:15:05.321Z,988.66
2018-01-30T11:16:05.331Z,988.60
2018-01-30T11:17:05.184Z,988.71
2018-01-30T11:18:05.959Z,988.60
2018-01-30T11:19:05.497Z,988.54
2018-01-30T11:20:05.519Z,988.49
2018-01-30T11:21:05.092Z,988.51
2018-01-30T11:22:05.201Z,988.51
2018-01-30T11:23:05.627Z,988.60
2018-01-30T11:24:05.068Z,988.54
2018-01-30T11:25:05.032Z,988.63
2018-01-30T11:26:05.814Z,988.60
2018-01-30T11:27:05.424Z,988.62
2018-01-30T11:28:05.383Z,988.51
2018-01-30T11:29:05.501Z,988.51
2018-01-30T11:30:05.765Z,988.57
2018-01-30T11:31:05.363Z,988.45
2018-01-30T11:32:05.151Z,988.40
2018-01-30T11:33:05.676Z,988.34
2018-01-30T11:34:05.206Z,988.40
2018-01-30T11:35:05.796Z,988.28
2018-01-30T11:36:05.280Z,988.45
2018-01-30T11:37:04.997Z,988.42
2018-01-30T11:38:05.674Z,988.34
2018-01-30T11:39:05.354Z,988.53
2018-01-30T11:40:05.378Z,988.36
2018-01-30T11:41:05.625Z,988.26
2018-01-30T11:42:05.680Z,988.36
2018-01-30T11:43:05.150Z,988.36
2018-01-30T11:44:04.988Z,988.34
2018-01-30T11:45:06.025Z,988.42
2018-01-30T11:46:05.707Z,988.31
2018-01-30T11:47:05.783Z,988.26
2018-01-30T11:48:05.334Z,988.34
2018-01-30T11:49:05.537Z,988.23
2018-01-30T11:50:05.894Z,988.39
2018-01-30T11:51:05.839Z,988.39
2018-01-30T11:52:05.687Z,988.36
2018-01-30T11:53:05.459Z,988.39
2018-01-30T11:54:05.363Z,988.42
2018-01-30T11:55:05.270Z,988.36
2018-01-30T11:56:05.466Z,988.45
2018-01-30T11:57:05.222Z,988.26
2018-01-30T11:58:05.300Z,988.23
2018-01-30T11:59:05.986Z,988.15
2018-01-30T12:00:04.963Z,988.15
2018-01-30T12:01:05.904Z,988.12
2018-01-30T12:02:05.560Z,988.03
2018-01-30T12:03:05.066Z,988.03
2018-01-30T12:04:05.024Z,987.92
2018-01-30T12:05:05.445Z,988.09
2018-01-30T12:06:05.390Z,987.95
2018-01-30T12:07:05.200Z,987.98
2018-01-30T12:08:05.754Z,987.95
2018-01-30T12:09:05.623Z,987.92
2018-01-30T12:10:05.252Z,987.87
2018-01-30T12:11:05.265Z,987.82
2018-01-30T12:12:05.290Z,987.82
2018-01-30T12:13:06.035Z,987.82
2018-01-30T12:14:05.678Z,987.98
2018-01-30T12:15:05.192Z,987.84
2018-01-30T12:16:05.335Z,987.73
2018-01-30T12:17:05.357Z,987.70
2018-01-30T12:18:05.099Z,987.73
2018-01-30T12:19:05.771Z,987.73
2018-01-30T12:20:05.747Z,987.79
2018-01-30T12:21:05.387Z,987.73
2018-01-30T12:22:05.736Z,987.78
2018-01-30T12:23:06.067Z,987.76
2018-01-30T12:24:05.388Z,987.73
2018-01-30T12:25:05.334Z,987.76
2018-01-30T12:26:05.468Z,987.70
2018-01-30T12:27:05.442Z,987.70
2018-01-30T12:28:05.447Z,987.59